Saturday, December 15, 2018, 1:17 PM EST
Back to Local

KGON, Groton/new London Airport

Location: Groton, CT, United States Lat: 41.333
Local Time: 1:17 PM EST (18:17 GMT) Lon: -72.05
Time Zone: US/Eastern Elev: 9 ft

Show me the last for .
Show Coded

Time T Td Feel RH Dir Speed Gust Alt SLP Vis Weather Sky Remarks
2018-12-15 12:56 54 50 - 86 10° 7 - 30.11 30.11 10 BKN044 6-hr Precip Total (1pm): 0.01"
6-hr Min Temp (1pm): 46.0°F
6-hr Max Temp (1pm): 54.0°F
2018-12-15 11:56 51 50 - 96 10° 3 - 30.13 30.13 10 OVC036 1-hr Precip Total: Trace
2018-12-15 11:16 49 49 47 100 50° 5 - 30.15 - 4 BR SCT023 BKN030 OVC039 1-hr Precip Total: Trace
2018-12-15 10:56 49 48 48 96 30° 3 - 30.17 30.17 3 -RA BR BKN018 OVC023 Pressure falling rapidly
1-hr Precip Total: 0.01"
2018-12-15 10:44 49 48 48 96 60° 3 - 30.18 - 2 -RA BR OVC016 1-hr Precip Total: 0.01"
2018-12-15 10:36 49 48 47 96 30° 5 - 30.19 - 3 -RA BR OVC016 1-hr Precip Total: Trace
2018-12-15 10:23 49 48 47 96 40° 6 - 30.20 - 2 -RA BR FEW006 OVC014 1-hr Precip Total: Trace
2018-12-15 09:56 50 49 49 96 40° 3 - 30.20 30.20 5 -RA BR OVC014 1-hr Precip Total: Trace
6-hr Precip Total (10am): 0.00"
2018-12-15 08:56 49 48 - 96 - Calm - 30.19 30.19 7 OVC013 None
2018-12-15 08:48 49 48 48 96 20° 3 - 30.19 - 7 OVC013 None
2018-12-15 07:56 48 48 47 100 10° 3 - 30.19 30.19 10 OVC019 None
2018-12-15 06:56 48 48 - 100 - Calm - 30.18 30.18 9 OVC021 6-hr Precip Total (7am): 0.03"
24-hr Precip Total (7am): 0.03"
6-hr Min Temp (7am): 46.0°F
6-hr Max Temp (7am): 48.0°F
2018-12-15 06:04 48 48 46 100 290° 5 - 30.19 - 8 FEW018 OVC026 None
2018-12-15 05:56 47 47 45 100 290° 5 - 30.19 30.19 2 BR FEW003 OVC026 1-hr Precip Total: 0.01"
2018-12-15 05:48 47 47 - 100 - Calm - 30.18 - 2 BR SCT003 OVC026 1-hr Precip Total: 0.01"
2018-12-15 05:40 47 47 46 100 200° 3 - 30.18 - 6 BR 1-hr Precip Total: 0.01"
2018-12-15 05:32 48 48 47 100 280° 3 - 30.19 - 2 BR 1-hr Precip Total: 0.01"
2018-12-15 05:22 47 47 45 100 300° 5 - 30.19 - 0 FG 1-hr Precip Total: 0.01"
2018-12-15 04:56 47 47 - 100 - Calm - 30.18 30.18 0 FG VV003 1-hr Precip Total: Trace
2018-12-15 03:56 46 46 43 100 200° 6 - 30.18 30.18 0 -RA FG VV003 Pressure falling rapidly
1-hr Precip Total: 0.01"
6-hr Precip Total (4am): 0.02"
2018-12-15 03:30 47 47 46 100 230° 3 - 30.21 - 0 -RA BR BKN003 OVC035 1-hr Precip Total: 0.01"
2018-12-15 03:10 48 47 47 96 220° 3 - 30.22 - 1 -RA BR BKN003 OVC035 1-hr Precip Total: Trace
2018-12-15 02:56 48 48 - 100 - Calm - 30.22 30.22 5 -RA BR OVC003 1-hr Precip Total: 0.01"
2018-12-15 01:56 48 48 - 100 - Calm - 30.22 30.22 8 OVC004 1-hr Precip Total: Trace
2018-12-15 00:56 47 47 45 100 230° 5 - 30.23 30.23 7 -RA OVC003 1-hr Precip Total: Trace
6-hr Precip Total (1am): 0.00"
6-hr Min Temp (1am): 46.0°F
6-hr Max Temp (1am): 48.0°F
2018-12-14 23:56 47 47 45 100 230° 5 - 30.25 30.25 7 OVC004 1-hr Precip Total: Trace
24-hr Min Temp (12am): 27.0°F
24-hr Max Temp (12am): 48.0°F
2018-12-14 22:56 48 47 45 96 220° 7 - 30.28 30.27 9 OVC003 None
2018-12-14 22:12 46 45 - 95 - Calm - 30.29 - 10 OVC004 None
2018-12-14 21:56 47 46 - 96 - Calm - 30.29 30.28 10 OVC005 None
2018-12-14 20:56 47 46 46 96 170° 3 - 30.30 30.30 10 OVC007 None
2018-12-14 19:56 46 45 44 95 140° 5 - 30.33 30.33 10 OVC009 None
2018-12-14 18:56 46 44 45 92 160° 3 - 30.35 30.35 10 OVC011 6-hr Min Temp (7pm): 45.0°F
6-hr Max Temp (7pm): 48.0°F
2018-12-14 18:30 46 44 45 92 130° 3 - 30.35 - 10 BKN013 OVC080 None
2018-12-14 17:56 45 43 42 92 120° 6 - 30.36 30.35 10 FEW016 SCT022 OVC065 None
2018-12-14 17:29 46 43 45 88 120° 3 - 30.38 - 10 SCT013 BKN024 OVC070 None
2018-12-14 16:56 45 42 44 89 140° 3 - 30.39 30.39 10 OVC013 None
2018-12-14 16:42 45 41 44 85 120° 3 - 30.39 - 10 BKN014 OVC028 None
2018-12-14 15:56 47 42 46 83 130° 3 - 30.40 30.40 10 BKN019 OVC026 None
2018-12-14 15:05 47 40 44 76 140° 7 - 30.40 - 10 BKN024 OVC060 None
2018-12-14 14:56 47 40 44 76 140° 6 - 30.40 30.40 10 SCT024 OVC060 None
2018-12-14 14:53 48 39 46 70 140° 6 - 30.40 - 10 SCT022 OVC060 None
2018-12-14 14:28 48 40 46 73 130° 5 - 30.40 - 10 BKN024 BKN060 None
2018-12-14 13:56 47 39 44 73 140° 7 - 30.40 30.40 10 FEW025 BKN060 None

Support USWX by starting your Amazon purchase here.